Time;durP1;ratioP1;P1;durP2;ratioP2;P2;SDS_P1;SDS_P2;PMS_P1;PMS_P2;Temp;Humidity;BMP_temperature;BMP_pressure;BME280_temperature;BME280_humidity;BME280_pressure;Samples;Min_cycle;Max_cycle;Signal;HPM_P1;HPM_P2
2021/07/03 00:00:12;;;;;;;21.97;14.23;;;17.40;99.90;;;;;;5095753;28;20285;-79
2021/07/03 00:02:39;;;;;;;22.50;14.30;;;17.30;99.90;;;;;;5095773;28;20218;-80
2021/07/03 00:05:07;;;;;;;19.80;13.83;;;17.40;99.90;;;;;;5095860;28;20225;-80
2021/07/03 00:07:34;;;;;;;22.80;13.80;;;17.40;99.90;;;;;;5095615;28;20727;-81
2021/07/03 00:10:02;;;;;;;23.27;13.77;;;17.40;99.90;;;;;;5095565;28;20294;-81
2021/07/03 00:12:29;;;;;;;24.83;15.30;;;17.30;99.90;;;;;;5095809;28;20298;-80
2021/07/03 00:14:56;;;;;;;23.83;15.10;;;17.30;99.90;;;;;;5095565;28;20295;-80
2021/07/03 00:17:23;;;;;;;21.03;14.47;;;17.30;99.90;;;;;;5095278;28;20278;-79
2021/07/03 00:19:50;;;;;;;18.97;14.30;;;17.30;99.90;;;;;;5094585;28;20222;-80
2021/07/03 00:22:17;;;;;;;20.50;14.40;;;17.20;99.90;;;;;;5095213;28;20764;-79
2021/07/03 00:24:44;;;;;;;22.80;13.40;;;17.20;99.90;;;;;;5094633;28;20281;-80
2021/07/03 00:27:12;;;;;;;20.53;14.07;;;17.20;99.90;;;;;;5095338;28;20223;-80
2021/07/03 00:29:39;;;;;;;25.73;14.33;;;17.10;99.90;;;;;;5095491;28;20558;-80
2021/07/03 00:32:06;;;;;;;23.13;14.53;;;17.10;99.90;;;;;;5095564;28;20191;-80
2021/07/03 00:34:33;;;;;;;23.67;15.00;;;16.90;99.90;;;;;;5095210;28;20238;-79
2021/07/03 00:37:00;;;;;;;20.87;14.10;;;16.90;99.90;;;;;;5095453;28;20286;-81
2021/07/03 00:39:28;;;;;;;22.57;14.00;;;17.00;99.90;;;;;;5095399;28;20748;-81
2021/07/03 00:41:54;;;;;;;19.50;13.93;;;17.00;99.90;;;;;;5095362;28;20277;-80
2021/07/03 00:44:31;;;;;;;21.60;13.23;;;17.00;99.90;;;;;;5094983;28;20194;-81
2021/07/03 00:47:00;;;;;;;18.97;13.57;;;16.90;99.90;;;;;;5095326;28;20731;-80
2021/07/03 00:49:27;;;;;;;23.13;13.67;;;16.90;99.90;;;;;;5096278;28;20217;-80
2021/07/03 00:51:54;;;;;;;20.83;13.33;;;16.90;99.90;;;;;;5095147;28;20377;-80
2021/07/03 00:54:22;;;;;;;19.70;13.13;;;17.00;99.90;;;;;;5094728;28;20276;-80
2021/07/03 00:56:49;;;;;;;18.07;13.53;;;16.90;99.90;;;;;;5094133;28;20194;-79
2021/07/03 00:59:16;;;;;;;18.63;13.23;;;16.80;99.90;;;;;;5094310;28;20197;-79
2021/07/03 01:01:44;;;;;;;20.07;12.77;;;16.90;99.90;;;;;;5094480;28;20222;-80
2021/07/03 01:04:11;;;;;;;19.53;12.93;;;16.80;99.90;;;;;;5094809;28;20199;-80
2021/07/03 01:06:38;;;;;;;18.37;13.87;;;16.70;99.90;;;;;;5094433;28;20736;-80
2021/07/03 01:09:05;;;;;;;19.30;13.43;;;16.80;99.90;;;;;;5094265;28;20248;-81
2021/07/03 01:11:31;;;;;;;19.63;13.33;;;16.90;99.90;;;;;;5094224;28;20199;-80
2021/07/03 01:13:58;;;;;;;19.10;13.10;;;16.90;99.90;;;;;;5094260;28;20290;-79
2021/07/03 01:16:25;;;;;;;23.60;13.97;;;17.00;99.90;;;;;;5094453;28;20205;-79
2021/07/03 01:18:53;;;;;;;16.23;12.47;;;17.00;99.90;;;;;;5094049;28;20211;-80
2021/07/03 01:21:21;;;;;;;18.07;12.57;;;17.00;99.90;;;;;;5093477;28;20228;-80
2021/07/03 01:23:49;;;;;;;20.77;13.13;;;17.10;99.90;;;;;;5093670;28;20230;-79
2021/07/03 01:26:16;;;;;;;20.73;12.90;;;17.20;99.90;;;;;;5093716;28;20281;-80
2021/07/03 01:28:44;;;;;;;16.47;12.20;;;17.30;99.90;;;;;;5094060;28;20685;-80
2021/07/03 01:31:10;;;;;;;21.80;12.30;;;17.40;99.90;;;;;;5093892;28;20233;-80
2021/07/03 01:33:38;;;;;;;17.00;11.90;;;17.50;99.90;;;;;;5093129;28;20345;-81
2021/07/03 01:36:06;;;;;;;17.83;12.40;;;17.40;99.90;;;;;;5093666;28;20201;-80
2021/07/03 01:38:33;;;;;;;18.13;12.63;;;17.20;99.90;;;;;;5093333;28;20669;-80
2021/07/03 01:41:01;;;;;;;16.57;12.13;;;17.30;99.90;;;;;;5093088;28;20661;-79
2021/07/03 01:43:29;;;;;;;18.30;11.77;;;17.40;99.90;;;;;;5093445;28;20226;-80
2021/07/03 01:45:57;;;;;;;15.67;11.53;;;17.40;99.90;;;;;;5093306;28;20210;-80
2021/07/03 01:48:28;;;;;;;18.17;11.40;;;17.40;99.90;;;;;;5093334;28;20199;-80
2021/07/03 01:50:56;;;;;;;20.97;12.03;;;17.50;99.90;;;;;;5093329;28;20199;-80
2021/07/03 01:53:23;;;;;;;18.53;12.43;;;17.60;99.90;;;;;;5092920;28;20302;-79
2021/07/03 01:55:50;;;;;;;16.10;12.03;;;17.60;99.90;;;;;;5093230;28;20203;-81
2021/07/03 01:58:21;;;;;;;18.07;12.13;;;17.60;99.90;;;;;;5093425;28;20234;-80
2021/07/03 02:00:48;;;;;;;17.73;12.87;;;17.70;99.90;;;;;;5093308;28;20657;-80
2021/07/03 02:03:15;;;;;;;21.40;12.77;;;17.60;99.90;;;;;;5093141;28;20321;-79
2021/07/03 02:05:42;;;;;;;17.60;12.00;;;17.60;99.90;;;;;;5092736;28;20230;-80
2021/07/03 02:08:09;;;;;;;18.93;12.30;;;17.50;99.90;;;;;;5092604;28;20314;-80
2021/07/03 02:10:36;;;;;;;21.47;13.60;;;17.40;99.90;;;;;;5092840;28;20199;-79
2021/07/03 02:13:03;;;;;;;17.43;12.20;;;17.50;99.90;;;;;;5093311;28;20191;-79
2021/07/03 02:15:31;;;;;;;18.23;12.27;;;17.40;99.90;;;;;;5093230;28;20194;-80
2021/07/03 02:17:58;;;;;;;17.80;12.77;;;17.50;99.90;;;;;;5092991;28;20210;-79
2021/07/03 02:20:26;;;;;;;18.60;12.13;;;17.40;99.90;;;;;;5093160;28;20230;-79
2021/07/03 02:22:53;;;;;;;21.47;12.93;;;17.40;99.90;;;;;;5093060;28;20313;-79
2021/07/03 02:25:20;;;;;;;21.50;12.43;;;17.30;99.90;;;;;;5092697;28;20677;-80
2021/07/03 02:27:49;;;;;;;17.57;12.23;;;17.20;99.90;;;;;;5092093;28;20653;-80
2021/07/03 02:30:17;;;;;;;19.47;12.30;;;17.10;99.90;;;;;;5094175;28;20206;-79
2021/07/03 02:32:46;;;;;;;19.03;13.13;;;17.10;99.90;;;;;;5094500;28;20237;-81
2021/07/03 02:35:14;;;;;;;17.63;11.97;;;17.20;99.90;;;;;;5094956;28;20199;-80
2021/07/03 02:37:42;;;;;;;20.00;12.80;;;17.20;99.90;;;;;;5095457;28;20202;-80
2021/07/03 02:40:15;;;;;;;19.27;12.57;;;17.20;99.90;;;;;;5094856;28;20230;-81
2021/07/03 02:42:42;;;;;;;18.57;12.17;;;17.20;99.90;;;;;;5094582;28;20225;-80
2021/07/03 02:45:11;;;;;;;21.43;13.00;;;17.30;99.90;;;;;;5093300;28;20198;-80
2021/07/03 02:47:39;;;;;;;18.97;12.60;;;17.20;99.90;;;;;;5091692;28;20273;-80
2021/07/03 02:50:10;;;;;;;18.23;12.03;;;17.20;99.90;;;;;;5092602;28;20306;-81
2021/07/03 02:52:37;;;;;;;16.87;11.50;;;17.20;99.90;;;;;;5093418;28;20278;-80
2021/07/03 02:55:05;;;;;;;19.13;12.50;;;17.10;99.90;;;;;;5092337;28;20205;-80
2021/07/03 02:57:32;;;;;;;18.70;12.10;;;17.10;99.90;;;;;;5080881;28;20191;-79
2021/07/03 02:59:59;;;;;;;19.63;12.77;;;17.20;99.90;;;;;;5092203;28;20274;-80
2021/07/03 03:02:26;;;;;;;15.27;11.30;;;17.20;99.90;;;;;;5093031;28;20286;-80
2021/07/03 03:04:53;;;;;;;19.43;12.77;;;17.20;99.90;;;;;;5093114;28;20237;-79
2021/07/03 03:07:21;;;;;;;18.00;12.60;;;17.20;99.90;;;;;;5103420;28;20202;-79
2021/07/03 03:09:48;;;;;;;18.37;11.90;;;17.20;99.90;;;;;;5092984;28;20259;-79
2021/07/03 03:12:15;;;;;;;19.97;12.50;;;17.20;99.90;;;;;;5092783;28;20281;-80
2021/07/03 03:14:41;;;;;;;16.67;11.83;;;17.00;99.90;;;;;;5092705;28;20673;-81
2021/07/03 03:17:08;;;;;;;19.63;12.77;;;17.00;99.90;;;;;;5096398;28;20669;-81
2021/07/03 03:19:36;;;;;;;18.10;11.63;;;17.00;99.90;;;;;;5095335;28;20206;-80
2021/07/03 03:22:03;;;;;;;19.77;12.53;;;17.00;99.90;;;;;;5096040;28;20238;-80
2021/07/03 03:24:31;;;;;;;18.00;11.83;;;17.00;99.90;;;;;;5095810;28;20655;-80
2021/07/03 03:26:58;;;;;;;21.13;12.93;;;16.90;99.90;;;;;;5092599;28;20251;-80
2021/07/03 03:29:25;;;;;;;20.73;12.87;;;17.00;99.90;;;;;;5092605;28;20726;-81
2021/07/03 03:31:52;;;;;;;17.00;12.17;;;16.90;99.90;;;;;;5093143;28;20628;-82
2021/07/03 03:34:19;;;;;;;20.93;12.43;;;16.90;99.90;;;;;;5092911;28;20285;-79
2021/07/03 03:36:46;;;;;;;15.53;11.57;;;16.90;99.90;;;;;;5092239;28;20649;-80
2021/07/03 03:39:13;;;;;;;20.47;13.03;;;17.00;99.90;;;;;;5092212;28;20203;-80
2021/07/03 03:41:41;;;;;;;23.03;13.43;;;17.00;99.90;;;;;;5092012;28;20248;-79
2021/07/03 03:44:08;;;;;;;23.77;13.23;;;17.00;99.90;;;;;;5092636;28;20314;-81
2021/07/03 03:46:35;;;;;;;22.00;12.67;;;17.00;99.90;;;;;;5096436;28;20234;-80
2021/07/03 03:49:02;;;;;;;23.30;12.73;;;17.00;99.90;;;;;;5096328;28;20278;-81
2021/07/03 03:51:29;;;;;;;19.40;12.40;;;17.10;99.90;;;;;;5096433;28;20298;-81
2021/07/03 03:53:55;;;;;;;22.17;13.37;;;17.10;99.90;;;;;;5096057;28;20640;-79
2021/07/03 03:56:22;;;;;;;18.30;13.00;;;17.20;99.90;;;;;;5096124;28;20563;-78
2021/07/03 03:58:51;;;;;;;20.60;12.93;;;17.30;99.90;;;;;;5095947;28;20661;-80
2021/07/03 04:01:18;;;;;;;15.37;11.53;;;17.30;99.90;;;;;;5096172;28;20260;-80
2021/07/03 04:03:44;;;;;;;20.57;12.07;;;17.50;99.90;;;;;;5095872;28;20226;-80
2021/07/03 04:06:11;;;;;;;19.13;12.87;;;17.60;99.90;;;;;;5095913;28;20289;-81
2021/07/03 04:08:38;;;;;;;19.33;12.27;;;17.60;99.90;;;;;;5095732;28;20230;-81
2021/07/03 04:11:05;;;;;;;17.30;12.07;;;17.60;99.90;;;;;;5095517;28;20241;-81
2021/07/03 04:13:32;;;;;;;16.80;12.10;;;17.80;99.90;;;;;;5096087;28;20230;-80
2021/07/03 04:16:00;;;;;;;16.77;10.60;;;17.90;99.90;;;;;;5096007;28;20260;-80
2021/07/03 04:18:27;;;;;;;18.23;11.40;;;18.00;99.90;;;;;;5095447;28;20688;-80
2021/07/03 04:20:54;;;;;;;17.37;10.83;;;18.30;99.90;;;;;;5095729;28;20203;-80
2021/07/03 04:23:21;;;;;;;16.33;10.70;;;18.40;99.90;;;;;;5095398;28;20261;-81
2021/07/03 04:25:48;;;;;;;19.40;10.93;;;18.60;99.90;;;;;;5095366;28;20233;-80
2021/07/03 04:28:15;;;;;;;14.10;10.40;;;18.80;99.90;;;;;;5095752;28;20210;-81
2021/07/03 04:30:42;;;;;;;16.87;11.13;;;19.00;99.90;;;;;;5095392;28;20227;-80
2021/07/03 04:33:10;;;;;;;15.13;10.80;;;19.20;99.90;;;;;;5095420;28;20297;-80
2021/07/03 04:35:37;;;;;;;13.27;9.97;;;19.30;99.90;;;;;;5095328;28;20221;-81
2021/07/03 04:38:04;;;;;;;14.73;10.43;;;19.50;99.90;;;;;;5095396;28;20234;-81
2021/07/03 04:40:31;;;;;;;13.27;9.80;;;19.50;99.90;;;;;;5095056;28;20649;-80
2021/07/03 04:42:58;;;;;;;13.77;10.30;;;19.50;99.90;;;;;;5094951;28;20677;-80
2021/07/03 04:45:25;;;;;;;12.97;10.53;;;19.40;99.90;;;;;;5095170;28;20199;-79
2021/07/03 04:47:52;;;;;;;12.40;9.43;;;19.40;99.90;;;;;;5095237;28;20245;-81
2021/07/03 04:50:21;;;;;;;15.83;9.67;;;19.50;99.90;;;;;;5094976;28;20217;-81
2021/07/03 04:52:48;;;;;;;11.73;9.67;;;19.40;99.90;;;;;;5094375;28;20234;-80
2021/07/03 04:55:15;;;;;;;13.80;10.50;;;19.40;99.90;;;;;;5094335;28;20535;-80
2021/07/03 04:57:42;;;;;;;18.40;10.07;;;19.30;99.90;;;;;;5093829;28;20229;-81
2021/07/03 05:00:10;;;;;;;13.73;9.80;;;19.20;99.90;;;;;;5094315;28;20329;-79
2021/07/03 05:02:37;;;;;;;17.17;9.67;;;19.20;99.90;;;;;;5094627;28;20227;-81
2021/07/03 05:05:05;;;;;;;12.33;9.27;;;19.10;99.90;;;;;;5094231;28;20686;-80
2021/07/03 05:07:33;;;;;;;14.43;9.53;;;19.20;99.90;;;;;;5094086;28;20635;-81
2021/07/03 05:10:00;;;;;;;12.63;9.73;;;19.20;99.90;;;;;;5094264;28;20282;-79
2021/07/03 05:12:27;;;;;;;13.03;9.27;;;19.30;99.90;;;;;;5090300;28;20226;-80
2021/07/03 05:14:54;;;;;;;13.17;9.00;;;19.30;99.90;;;;;;5092786;28;20234;-79
2021/07/03 05:17:21;;;;;;;15.80;9.57;;;19.20;99.90;;;;;;5092986;28;20226;-80
2021/07/03 05:19:47;;;;;;;15.67;9.80;;;19.00;99.90;;;;;;5093829;28;20238;-79
2021/07/03 05:22:14;;;;;;;14.77;9.87;;;18.90;99.90;;;;;;5093385;28;20242;-80
2021/07/03 05:24:43;;;;;;;20.10;11.17;;;19.10;99.90;;;;;;5093480;28;20257;-79
2021/07/03 05:27:09;;;;;;;13.97;9.30;;;19.30;99.90;;;;;;5093244;28;20268;-79
2021/07/03 05:29:36;;;;;;;13.07;9.23;;;19.40;99.90;;;;;;5092537;28;20231;-79
2021/07/03 05:32:04;;;;;;;13.97;9.00;;;19.50;99.90;;;;;;5093260;28;20237;-79
2021/07/03 05:34:31;;;;;;;12.10;9.33;;;19.50;99.90;;;;;;5093536;28;20255;-80
2021/07/03 05:36:58;;;;;;;14.93;9.80;;;19.60;99.90;;;;;;5093673;28;20231;-80
2021/07/03 05:39:25;;;;;;;12.20;8.63;;;19.60;99.90;;;;;;5089706;28;20195;-80
2021/07/03 05:41:54;;;;;;;13.33;8.90;;;19.50;99.90;;;;;;5073100;28;20580;-80
2021/07/03 05:44:23;;;;;;;13.63;8.53;;;19.60;99.90;;;;;;5075877;28;20302;-80
2021/07/03 05:46:50;;;;;;;14.53;8.83;;;19.60;99.90;;;;;;5093349;28;20199;-79
2021/07/03 05:49:18;;;;;;;11.93;8.67;;;19.70;99.90;;;;;;5093226;28;20289;-80
2021/07/03 05:51:45;;;;;;;13.90;9.57;;;19.70;99.90;;;;;;5087737;28;20196;-80
2021/07/03 05:54:12;;;;;;;14.17;9.37;;;19.80;99.90;;;;;;5091376;28;20195;-79
2021/07/03 05:56:40;;;;;;;13.27;9.57;;;19.90;99.90;;;;;;5092346;28;20285;-79
2021/07/03 05:59:08;;;;;;;10.67;8.73;;;20.00;99.90;;;;;;5087396;28;20335;-79
2021/07/03 06:01:35;;;;;;;13.10;8.97;;;20.10;99.90;;;;;;5092358;28;20282;-78
2021/07/03 06:04:02;;;;;;;12.53;8.80;;;20.10;99.90;;;;;;5104220;28;20225;-78
2021/07/03 06:06:28;;;;;;;12.63;8.93;;;20.10;99.90;;;;;;5101838;28;20207;-77
2021/07/03 06:08:55;;;;;;;13.50;9.00;;;20.10;99.90;;;;;;5093141;28;20381;-78
2021/07/03 06:11:22;;;;;;;10.77;8.83;;;20.20;99.90;;;;;;5087827;28;20290;-78
2021/07/03 06:13:49;;;;;;;11.87;8.70;;;20.30;99.90;;;;;;5088472;28;20294;-78
2021/07/03 06:16:17;;;;;;;14.70;8.73;;;20.40;99.90;;;;;;5092439;28;20261;-78
2021/07/03 06:18:44;;;;;;;12.50;9.33;;;20.50;99.90;;;;;;5092530;28;20658;-78
2021/07/03 06:21:11;;;;;;;10.97;9.03;;;20.50;99.90;;;;;;5092963;28;20203;-78
2021/07/03 06:23:38;;;;;;;11.33;8.53;;;20.60;99.90;;;;;;5092620;28;20262;-78
2021/07/03 06:26:05;;;;;;;10.97;9.40;;;20.50;99.90;;;;;;5092823;28;20199;-78
2021/07/03 06:28:33;;;;;;;15.00;9.13;;;20.60;99.90;;;;;;5092713;28;20568;-78
2021/07/03 06:31:01;;;;;;;15.93;9.00;;;20.60;99.90;;;;;;5092706;28;20632;-78
2021/07/03 06:33:29;;;;;;;13.57;9.80;;;20.70;99.90;;;;;;5093095;28;20198;-78
2021/07/03 06:35:56;;;;;;;12.27;8.93;;;20.70;99.90;;;;;;5092774;28;20246;-79
2021/07/03 06:38:23;;;;;;;13.17;8.57;;;20.80;99.90;;;;;;5092952;28;20249;-79
2021/07/03 06:40:50;;;;;;;10.07;8.57;;;20.80;99.90;;;;;;5091098;28;20195;-78
2021/07/03 06:43:17;;;;;;;12.40;8.10;;;20.90;99.90;;;;;;5092612;28;20560;-78
2021/07/03 06:45:44;;;;;;;12.60;8.37;;;20.80;99.90;;;;;;5092320;28;20258;-78
2021/07/03 06:48:11;;;;;;;13.13;8.63;;;21.00;99.90;;;;;;5092526;28;20234;-78
2021/07/03 06:50:39;;;;;;;12.03;8.73;;;21.10;99.90;;;;;;5093481;28;20192;-78
2021/07/03 06:53:06;;;;;;;10.93;7.63;;;21.10;99.90;;;;;;5093110;28;20205;-79
2021/07/03 06:55:33;;;;;;;9.87;8.03;;;21.40;99.90;;;;;;5093034;28;20245;-79
2021/07/03 06:58:00;;;;;;;9.70;8.17;;;21.40;99.90;;;;;;5093066;28;20234;-79
2021/07/03 07:00:27;;;;;;;9.27;8.23;;;21.60;99.90;;;;;;5092863;28;20226;-78
2021/07/03 07:02:54;;;;;;;10.70;7.67;;;21.40;99.90;;;;;;5093038;28;20248;-79
2021/07/03 07:05:21;;;;;;;14.47;8.00;;;21.30;99.90;;;;;;5093099;28;20700;-79
2021/07/03 07:07:49;;;;;;;12.20;7.97;;;21.10;99.90;;;;;;5093379;28;20282;-78
2021/07/03 07:10:16;;;;;;;12.37;9.17;;;21.10;99.90;;;;;;5093111;28;20314;-77
2021/07/03 07:12:43;;;;;;;10.77;8.47;;;20.90;99.90;;;;;;5092991;28;20203;-78
2021/07/03 07:15:11;;;;;;;12.23;8.73;;;20.80;99.90;;;;;;5092881;28;20228;-79
2021/07/03 07:17:37;;;;;;;11.53;9.00;;;20.60;99.90;;;;;;5093028;28;20207;-78
2021/07/03 07:20:06;;;;;;;12.77;8.90;;;20.60;99.90;;;;;;5094384;28;20198;-78
2021/07/03 07:22:33;;;;;;;11.83;9.23;;;20.40;99.90;;;;;;5096630;28;20730;-78
2021/07/03 07:25:03;;;;;;;17.47;9.33;;;20.10;99.90;;;;;;5096536;28;20222;-78
2021/07/03 07:27:29;;;;;;;12.63;9.30;;;20.30;99.90;;;;;;5096566;28;20244;-78
2021/07/03 07:29:56;;;;;;;10.13;8.93;;;20.40;99.90;;;;;;5096488;28;20199;-78
2021/07/03 07:32:23;;;;;;;10.23;9.00;;;20.30;99.90;;;;;;5096606;28;20195;-78
2021/07/03 07:34:50;;;;;;;9.83;8.83;;;20.10;99.90;;;;;;5096587;28;20230;-78
2021/07/03 07:37:17;;;;;;;12.03;8.47;;;20.40;99.90;;;;;;5096417;28;20675;-78
2021/07/03 07:39:44;;;;;;;13.80;9.30;;;20.50;99.90;;;;;;5096544;28;20226;-78
2021/07/03 07:42:12;;;;;;;13.03;8.43;;;20.70;99.90;;;;;;5096278;28;20195;-78
2021/07/03 07:44:39;;;;;;;19.20;8.63;;;20.80;99.90;;;;;;5096120;28;20273;-79
2021/07/03 07:47:06;;;;;;;13.67;8.40;;;21.10;99.90;;;;;;5096273;28;20709;-78
2021/07/03 07:49:33;;;;;;;19.77;8.87;;;21.30;99.90;;;;;;5096642;28;20202;-78
2021/07/03 07:52:00;;;;;;;13.65;8.35;;;21.50;99.90;;;;;;5096337;28;20280;-78
2021/07/03 07:54:27;;;;;;;9.90;7.57;;;21.80;99.90;;;;;;5096207;28;20205;-79
2021/07/03 07:56:54;;;;;;;9.13;7.93;;;21.80;99.90;;;;;;5095829;28;20282;-79
2021/07/03 07:59:22;;;;;;;13.50;8.43;;;22.10;99.90;;;;;;5096054;28;20195;-79
2021/07/03 08:01:49;;;;;;;8.93;7.97;;;22.30;99.90;;;;;;5096016;28;20230;-80
2021/07/03 08:04:16;;;;;;;15.65;8.30;;;22.20;99.90;;;;;;5095673;28;20226;-78
2021/07/03 08:06:43;;;;;;;11.20;8.07;;;22.00;99.90;;;;;;5096010;28;20222;-79
2021/07/03 08:09:10;;;;;;;10.45;7.93;;;22.30;99.90;;;;;;5095760;28;20230;-79
2021/07/03 08:11:37;;;;;;;14.13;8.80;;;22.80;99.90;;;;;;5095885;28;20210;-79
2021/07/03 08:14:04;;;;;;;13.35;8.43;;;23.00;99.90;;;;;;5095664;28;20202;-78
2021/07/03 08:16:32;;;;;;;13.57;7.70;;;22.90;99.90;;;;;;5095860;28;20199;-79
2021/07/03 08:18:59;;;;;;;13.23;7.32;;;23.00;99.90;;;;;;5095792;28;20667;-80
2021/07/03 08:21:26;;;;;;;12.73;7.80;;;23.00;99.90;;;;;;5095622;28;20713;-79
2021/07/03 08:23:53;;;;;;;12.33;7.13;;;23.30;99.90;;;;;;5095519;28;20227;-79
2021/07/03 08:26:20;;;;;;;10.85;7.35;;;23.40;99.90;;;;;;5095909;28;20281;-79
2021/07/03 08:28:47;;;;;;;8.60;6.78;;;23.50;99.90;;;;;;5095493;28;20673;-79
2021/07/03 08:31:14;;;;;;;11.75;7.25;;;23.70;99.90;;;;;;5095496;28;20663;-78
2021/07/03 08:33:42;;;;;;;12.63;6.85;;;23.70;99.90;;;;;;5095328;28;20272;-78
2021/07/03 08:36:09;;;;;;;12.43;7.78;;;23.80;99.90;;;;;;5095510;28;20234;-80
2021/07/03 08:38:36;;;;;;;8.95;6.45;;;24.00;99.90;;;;;;5095197;28;20206;-78
2021/07/03 08:41:03;;;;;;;9.63;6.47;;;23.90;99.90;;;;;;5095254;28;20195;-80
2021/07/03 08:43:30;;;;;;;8.45;7.03;;;23.70;99.90;;;;;;5095243;28;20281;-79
2021/07/03 08:45:57;;;;;;;9.77;6.90;;;23.90;99.90;;;;;;5095017;28;20313;-79
2021/07/03 08:48:24;;;;;;;7.45;6.65;;;24.00;99.90;;;;;;5095008;28;20199;-78
2021/07/03 08:50:58;;;;;;;7.68;6.30;;;24.20;99.90;;;;;;5095022;28;20199;-78
2021/07/03 08:53:25;;;;;;;6.80;6.10;;;24.50;99.90;;;;;;5094957;28;20229;-79
2021/07/03 08:55:53;;;;;;;10.13;6.30;;;24.80;99.90;;;;;;5095124;28;20260;-80
2021/07/03 08:58:20;;;;;;;10.25;6.72;;;24.90;99.90;;;;;;5095207;28;20657;-78
2021/07/03 09:00:47;;;;;;;7.70;6.65;;;24.90;99.90;;;;;;5094643;28;20222;-79
2021/07/03 09:03:16;;;;;;;8.02;6.15;;;24.50;99.90;;;;;;5094799;28;20239;-80
2021/07/03 09:05:45;;;;;;;11.00;6.43;;;24.30;99.90;;;;;;5094568;28;20258;-79
2021/07/03 09:08:13;;;;;;;12.10;6.45;;;24.10;99.90;;;;;;5094634;28;20313;-79
2021/07/03 09:10:41;;;;;;;7.10;6.30;;;24.10;99.90;;;;;;5094786;28;20294;-79
2021/07/03 09:13:08;;;;;;;9.68;6.13;;;24.10;99.90;;;;;;5094946;28;20290;-77
2021/07/03 09:15:39;;;;;;;6.85;6.25;;;24.10;99.90;;;;;;5094565;28;20297;-79
2021/07/03 09:18:07;;;;;;;7.30;6.32;;;24.10;99.90;;;;;;5094712;28;20249;-78
2021/07/03 09:20:35;;;;;;;9.73;6.32;;;24.50;99.90;;;;;;5094980;28;20413;-80
2021/07/03 09:23:11;;;;;;;9.00;6.28;;;24.80;99.90;;;;;;5094773;28;20218;-80
2021/07/03 09:25:43;;;;;;;8.35;6.55;;;24.90;99.90;;;;;;5094312;28;20630;-79
2021/07/03 09:28:15;;;;;;;10.15;6.45;;;25.10;99.90;;;;;;5094246;28;20195;-77
2021/07/03 09:30:44;;;;;;;6.85;6.25;;;25.10;99.90;;;;;;5094203;28;20206;-78
2021/07/03 09:33:16;;;;;;;7.65;5.80;;;25.50;99.90;;;;;;5094400;28;20230;-78
2021/07/03 09:35:43;;;;;;;11.73;6.50;;;25.40;99.90;;;;;;5094437;28;20199;-80
2021/07/03 09:38:13;;;;;;;6.90;6.30;;;25.80;99.90;;;;;;5094044;28;20252;-79
2021/07/03 09:40:42;;;;;;;8.90;6.45;;;25.60;99.90;;;;;;5095157;28;20649;-78
2021/07/03 09:43:10;;;;;;;10.52;6.30;;;25.80;99.90;;;;;;5093485;28;20222;-80
2021/07/03 09:45:39;;;;;;;8.43;6.13;;;26.20;99.90;;;;;;5094076;28;20232;-79
2021/07/03 09:48:09;;;;;;;7.68;6.40;;;26.30;99.90;;;;;;5094188;28;20237;-78
2021/07/03 09:50:38;;;;;;;8.93;6.57;;;26.40;99.90;;;;;;5094119;28;20626;-78
2021/07/03 09:53:06;;;;;;;7.80;5.72;;;26.50;99.90;;;;;;5093996;28;20567;-79
2021/07/03 09:55:33;;;;;;;7.32;6.53;;;26.60;99.90;;;;;;5093967;28;20195;-79
2021/07/03 09:58:03;;;;;;;6.93;5.90;;;26.40;99.90;;;;;;5093766;28;20609;-80
2021/07/03 10:00:30;;;;;;;6.97;5.95;;;27.10;99.90;;;;;;5093691;28;20637;-79
2021/07/03 10:02:58;;;;;;;7.55;6.25;;;27.10;99.90;;;;;;5093637;28;20340;-78
2021/07/03 10:05:26;;;;;;;6.88;5.70;;;27.40;99.90;;;;;;5093756;28;20261;-78
2021/07/03 10:07:59;;;;;;;7.60;6.03;;;27.60;99.90;;;;;;5094406;28;20282;-79
2021/07/03 10:10:28;;;;;;;6.90;5.68;;;27.60;99.90;;;;;;5093638;28;20285;-79
2021/07/03 10:13:04;;;;;;;6.72;6.03;;;28.10;99.90;;;;;;5093513;28;20706;-79
2021/07/03 10:15:33;;;;;;;8.60;6.10;;;28.00;99.90;;;;;;5093677;28;20198;-80
2021/07/03 10:18:15;;;;;;;6.22;5.10;;;28.10;99.90;;;;;;5093686;28;20233;-80
2021/07/03 10:20:43;;;;;;;8.85;5.60;;;27.90;99.90;;;;;;5093261;28;20207;-80
2021/07/03 10:23:11;;;;;;;6.20;5.60;;;27.80;99.90;;;;;;5093687;28;20249;-79
2021/07/03 10:25:40;;;;;;;9.55;6.07;;;27.80;99.90;;;;;;5093187;28;20269;-80
2021/07/03 10:28:11;;;;;;;8.45;5.63;;;27.50;99.90;;;;;;5093344;28;20218;-80
2021/07/03 10:30:40;;;;;;;9.73;5.40;;;27.90;99.90;;;;;;5093634;28;20256;-80
2021/07/03 10:33:11;;;;;;;7.55;5.50;;;28.40;99.90;;;;;;5093419;28;20241;-80
2021/07/03 10:35:45;;;;;;;6.80;5.93;;;28.70;99.90;;;;;;5093580;28;20242;-80
2021/07/03 10:38:17;;;;;;;6.47;5.88;;;29.20;99.90;;;;;;5093220;28;20282;-80
2021/07/03 10:40:44;;;;;;;7.47;6.18;;;29.30;99.90;;;;;;5093195;28;20191;-80
2021/07/03 10:43:14;;;;;;;6.65;5.95;;;29.20;99.90;;;;;;5093015;28;20199;-78
2021/07/03 10:45:46;;;;;;;6.50;5.90;;;28.70;99.90;;;;;;5092578;28;20696;-79
2021/07/03 10:48:18;;;;;;;8.85;6.20;;;28.60;99.90;;;;;;5093228;28;20215;-81
2021/07/03 10:50:45;;;;;;;6.82;6.13;;;28.30;99.90;;;;;;5092943;28;20273;-80
2021/07/03 10:53:23;;;;;;;7.00;6.30;;;28.20;99.90;;;;;;5092626;28;20294;-80
2021/07/03 10:55:51;;;;;;;9.25;6.43;;;28.10;99.90;;;;;;5095940;28;20202;-78
2021/07/03 10:58:21;;;;;;;6.63;5.90;;;27.60;99.90;;;;;;5096899;28;20234;-80
2021/07/03 11:00:51;;;;;;;7.45;6.32;;;27.80;99.90;;;;;;5097478;28;20234;-79
2021/07/03 11:03:23;;;;;;;7.45;6.75;;;27.50;99.90;;;;;;5097900;28;20206;-81
2021/07/03 11:05:50;;;;;;;7.68;6.05;;;27.20;99.90;;;;;;5098461;28;20321;-80
2021/07/03 11:08:19;;;;;;;7.18;6.43;;;27.10;99.90;;;;;;5098964;28;20282;-79
2021/07/03 11:10:47;;;;;;;10.43;6.38;;;26.70;99.90;;;;;;5099182;28;20281;-79
2021/07/03 11:13:23;;;;;;;9.57;6.45;;;26.60;99.90;;;;;;5099812;28;20195;-78
2021/07/03 11:15:50;;;;;;;7.70;6.07;;;26.40;99.90;;;;;;5099833;28;20226;-79
2021/07/03 11:18:17;;;;;;;10.10;6.45;;;26.50;99.90;;;;;;5099972;28;20260;-80
2021/07/03 11:20:45;;;;;;;7.75;6.30;;;26.10;99.90;;;;;;5099602;28;20281;-80
2021/07/03 11:23:13;;;;;;;7.90;6.43;;;25.90;99.90;;;;;;5097612;28;20195;-80
2021/07/03 11:25:42;;;;;;;10.43;7.22;;;26.10;99.90;;;;;;5096856;28;20230;-79
2021/07/03 11:28:10;;;;;;;8.38;6.60;;;26.20;99.90;;;;;;5097303;28;20294;-78
2021/07/03 11:30:40;;;;;;;6.70;5.90;;;26.80;99.90;;;;;;5096800;28;20269;-80
2021/07/03 11:33:08;;;;;;;9.77;6.20;;;28.20;99.90;;;;;;5097402;28;20293;-78
2021/07/03 11:35:39;;;;;;;9.18;6.10;;;28.80;99.90;;;;;;5096785;28;20282;-81
2021/07/03 11:38:06;;;;;;;9.40;6.22;;;29.80;99.90;;;;;;5096714;28;20740;-79
2021/07/03 11:40:34;;;;;;;6.80;6.10;;;31.50;99.90;;;;;;5097640;28;20264;-80
2021/07/03 11:43:02;;;;;;;7.00;6.30;;;32.40;99.90;;;;;;5097637;28;20190;-80
2021/07/03 11:45:32;;;;;;;6.97;5.70;;;31.10;99.90;;;;;;5096479;28;20690;-80
2021/07/03 11:48:07;;;;;;;7.78;6.35;;;31.80;99.90;;;;;;5096388;28;20245;-79
2021/07/03 11:50:36;;;;;;;7.53;6.50;;;32.40;99.90;;;;;;5096348;28;20201;-80
2021/07/03 11:53:05;;;;;;;11.45;5.78;;;33.10;99.90;;;;;;5096220;28;20627;-80
2021/07/03 11:55:34;;;;;;;7.70;6.13;;;33.60;99.90;;;;;;5096138;28;20549;-80
2021/07/03 11:58:02;;;;;;;6.80;6.20;;;33.00;99.90;;;;;;5096963;28;20225;-81
2021/07/03 12:00:31;;;;;;;9.00;6.40;;;32.70;99.90;;;;;;5096039;28;20230;-79
2021/07/03 12:02:58;;;;;;;7.38;6.32;;;31.90;99.90;;;;;;5095936;28;20606;-81
2021/07/03 12:05:29;;;;;;;6.82;6.13;;;31.10;99.90;;;;;;5095074;28;20315;-80
2021/07/03 12:07:57;;;;;;;9.13;6.53;;;30.30;99.90;;;;;;5095986;28;20203;-81
2021/07/03 12:10:36;;;;;;;12.88;6.93;;;29.60;99.90;;;;;;5095792;28;20361;-79
2021/07/03 12:13:04;;;;;;;11.50;6.90;;;29.50;99.90;;;;;;5095647;28;20237;-80
2021/07/03 12:15:31;;;;;;;7.38;6.65;;;30.20;99.90;;;;;;5095759;28;20282;-81
2021/07/03 12:17:59;;;;;;;7.45;6.70;;;30.30;99.90;;;;;;5095599;28;20199;-78
2021/07/03 12:20:27;;;;;;;8.32;6.90;;;30.30;99.90;;;;;;5095492;28;20297;-79
2021/07/03 12:22:56;;;;;;;8.82;6.07;;;30.30;99.90;;;;;;5095451;28;20256;-81
2021/07/03 12:25:24;;;;;;;9.82;6.38;;;30.50;99.90;;;;;;5095374;28;20202;-81
2021/07/03 12:27:54;;;;;;;9.88;7.05;;;30.30;99.90;;;;;;5095498;28;20355;-80
2021/07/03 12:30:22;;;;;;;7.22;6.55;;;30.20;99.90;;;;;;5094972;28;20199;-80
2021/07/03 12:33:00;;;;;;;8.80;6.93;;;29.50;99.90;;;;;;5095214;28;20203;-79
2021/07/03 12:35:37;;;;;;;8.02;6.78;;;28.70;99.90;;;;;;5095088;28;20281;-79
2021/07/03 12:38:04;;;;;;;8.27;6.93;;;28.10;99.90;;;;;;5095117;28;20238;-79